Time;durP1;ratioP1;P1;durP2;ratioP2;P2;SDS_P1;SDS_P2;PMS_P1;PMS_P2;Temp;Humidity;BMP_temperature;BMP_pressure;BME280_temperature;BME280_humidity;BME280_pressure;Samples;Min_cycle;Max_cycle;Signal;HPM_P1;HPM_P2
2023/06/16 00:00:50;;;;;;;;;;;;;;;17.34;56.32;101866.44;5109737;28;19916;-59
2023/06/16 00:03:16;;;;;;;;;;;;;;;17.32;56.11;101859.47;5123416;27;19989;-58
2023/06/16 00:05:43;;;;;;;;;;;;;;;17.30;55.39;101851.66;5115370;27;19922;-59
2023/06/16 00:08:09;;;;;;;;;;;;;;;17.30;55.51;101850.78;5112075;28;20294;-58
2023/06/16 00:10:34;;;;;;;;;;;;;;;17.30;55.24;101846.47;5106421;28;19927;-59
2023/06/16 00:12:59;;;;;;;;;;;;;;;17.30;55.82;101848.19;5111794;28;20038;-58
2023/06/16 00:15:25;;;;;;;;;;;;;;;17.29;55.47;101847.31;5111453;28;19923;-59
2023/06/16 00:17:50;;;;;;;;;;;;;;;17.29;54.76;101843.81;5096940;28;19919;-59
2023/06/16 00:20:19;;;;;;;;;;;;;;;17.27;54.92;101849.00;5122360;28;20310;-59
2023/06/16 00:22:47;;;;;;;;;;;;;;;17.26;55.36;101848.97;5117194;28;19919;-59
2023/06/16 00:25:13;;;;;;;;;;;;;;;17.21;54.91;101850.63;5094248;28;19926;-58
2023/06/16 00:27:38;;;;;;;;;;;;;;;17.14;54.98;101855.72;5110453;28;19923;-60
2023/06/16 00:30:04;;;;;;;;;;;;;;;17.10;55.26;101848.69;5112756;28;19917;-60
2023/06/16 00:32:29;;;;;;;;;;;;;;;17.06;55.22;101859.03;5110551;28;19927;-60
2023/06/16 00:34:55;;;;;;;;;;;;;;;17.00;55.28;101856.34;5092360;28;19916;-58
2023/06/16 00:37:20;;;;;;;;;;;;;;;16.93;55.90;101847.56;5111461;28;19991;-58
2023/06/16 00:39:45;;;;;;;;;;;;;;;16.88;56.08;101846.59;5112510;28;19950;-59
2023/06/16 00:42:10;;;;;;;;;;;;;;;16.84;55.88;101844.78;5117838;27;19927;-59
2023/06/16 00:44:36;;;;;;;;;;;;;;;16.80;55.63;101846.44;5121676;27;19916;-59
2023/06/16 00:47:01;;;;;;;;;;;;;;;16.77;55.28;101850.72;5120343;27;20612;-59
2023/06/16 00:49:27;;;;;;;;;;;;;;;16.70;55.28;101843.66;5119681;27;19920;-59
2023/06/16 00:51:52;;;;;;;;;;;;;;;16.59;55.26;101852.09;5118536;27;20344;-58
2023/06/16 00:54:17;;;;;;;;;;;;;;;16.52;55.29;101846.75;5122900;27;19919;-59
2023/06/16 00:56:43;;;;;;;;;;;;;;;16.44;55.39;101846.63;5118546;27;19918;-58
2023/06/16 00:59:09;;;;;;;;;;;;;;;16.36;56.17;101843.84;5109743;27;19935;-59
2023/06/16 01:01:34;;;;;;;;;;;;;;;16.29;56.43;101841.97;5103654;28;20374;-60
2023/06/16 01:04:00;;;;;;;;;;;;;;;16.24;56.53;101843.59;5108160;28;20339;-58
2023/06/16 01:06:43;;;;;;;;;;;;;;;16.20;57.25;101830.53;5080165;28;19911;-58
2023/06/16 01:09:20;;;;;;;;;;;;;;;16.18;57.85;101833.09;5101787;28;19896;-58
2023/06/16 01:11:49;;;;;;;;;;;;;;;16.17;57.77;101833.06;5081478;28;19948;-59
2023/06/16 01:14:28;;;;;;;;;;;;;;;16.16;58.17;101831.34;5096624;28;19916;-59
2023/06/16 01:16:54;;;;;;;;;;;;;;;16.11;58.52;101833.81;5098457;28;19928;-60
2023/06/16 01:19:28;;;;;;;;;;;;;;;16.08;58.47;101826.00;5106874;28;19912;-59
2023/06/16 01:21:57;;;;;;;;;;;;;;;16.05;58.64;101829.38;5095433;28;19961;-59
2023/06/16 01:24:23;;;;;;;;;;;;;;;16.02;58.48;101831.94;5098521;28;19916;-59
2023/06/16 01:26:52;;;;;;;;;;;;;;;15.98;58.75;101835.28;5100959;28;20330;-59
2023/06/16 01:29:21;;;;;;;;;;;;;;;15.93;58.70;101833.44;5096122;28;19951;-59
2023/06/16 01:31:48;;;;;;;;;;;;;;;15.90;58.80;101841.16;5103675;28;19962;-59
2023/06/16 01:34:14;;;;;;;;;;;;;;;15.85;58.43;101835.00;5100543;28;20546;-60
2023/06/16 01:36:40;;;;;;;;;;;;;;;15.83;58.82;101837.53;5095125;28;19947;-58
2023/06/16 01:39:07;;;;;;;;;;;;;;;15.79;58.47;101835.75;5113092;28;19962;-59
2023/06/16 01:41:33;;;;;;;;;;;;;;;15.73;58.27;101838.19;5105589;28;19915;-58
2023/06/16 01:43:59;;;;;;;;;;;;;;;15.66;58.23;101831.13;5100962;28;20340;-59
2023/06/16 01:46:25;;;;;;;;;;;;;;;15.63;59.11;101821.53;5088993;28;19916;-59
2023/06/16 01:48:51;;;;;;;;;;;;;;;15.67;58.95;101823.38;5105425;28;20297;-58
2023/06/16 01:51:16;;;;;;;;;;;;;;;15.72;56.98;101824.34;5101089;28;19928;-58
2023/06/16 01:53:41;;;;;;;;;;;;;;;15.75;57.33;101826.13;5099552;28;19931;-59
2023/06/16 01:56:09;;;;;;;;;;;;;;;15.76;57.24;101817.50;5100309;28;20420;-60
2023/06/16 01:58:35;;;;;;;;;;;;;;;15.78;56.65;101821.03;5101037;28;20389;-59
2023/06/16 02:01:08;;;;;;;;;;;;;;;15.79;56.85;101822.78;5107725;28;19949;-59
2023/06/16 02:04:06;;;;;;;;;;;;;;;15.78;56.11;101821.91;5100790;28;19912;-58
2023/06/16 02:06:57;;;;;;;;;;;;;;;15.74;56.64;101825.25;5040819;28;20379;-60
2023/06/16 02:09:24;;;;;;;;;;;;;;;15.68;56.62;101825.13;5094645;28;20279;-59
2023/06/16 02:11:51;;;;;;;;;;;;;;;15.61;56.60;101828.38;5095446;28;19920;-60
2023/06/16 02:14:17;;;;;;;;;;;;;;;15.56;56.31;101824.81;5099609;28;19916;-45
2023/06/16 02:16:42;;;;;;;;;;;;;;;15.52;56.69;101826.44;5094493;28;20406;-47
2023/06/16 02:19:12;;;;;;;;;;;;;;;15.50;57.33;101829.84;5080626;28;20291;-44
2023/06/16 02:21:37;;;;;;;;;;;;;;;15.45;57.20;101826.28;5084821;28;19917;-45
2023/06/16 02:24:03;;;;;;;;;;;;;;;15.39;57.55;101827.00;5095631;28;19930;-46
2023/06/16 02:26:28;;;;;;;;;;;;;;;15.35;57.57;101830.38;5106859;28;19923;-44
2023/06/16 02:28:54;;;;;;;;;;;;;;;15.29;57.23;101825.06;5105871;28;19915;-45
2023/06/16 02:31:19;;;;;;;;;;;;;;;15.25;57.42;101836.16;5098496;28;19947;-48
2023/06/16 02:33:44;;;;;;;;;;;;;;;15.21;57.76;101836.91;5104197;28;19923;-44
2023/06/16 02:36:10;;;;;;;;;;;;;;;15.16;57.78;101836.81;5101040;28;19912;-45
2023/06/16 02:38:35;;;;;;;;;;;;;;;15.13;57.50;101833.28;5104139;28;20013;-45
2023/06/16 02:41:01;;;;;;;;;;;;;;;15.07;57.35;101830.53;5096856;28;20370;-45
2023/06/16 02:43:26;;;;;;;;;;;;;;;15.03;58.30;101835.63;5101848;28;19912;-43
2023/06/16 02:45:51;;;;;;;;;;;;;;;15.02;58.69;101833.88;5093520;28;20395;-44
2023/06/16 02:48:17;;;;;;;;;;;;;;;15.02;58.93;101833.00;5075215;28;19920;-45
2023/06/16 02:50:42;;;;;;;;;;;;;;;14.98;58.60;101837.22;5101593;28;19920;-47
2023/06/16 02:53:09;;;;;;;;;;;;;;;14.93;58.40;101831.06;5068249;28;20006;-47
2023/06/16 02:55:35;;;;;;;;;;;;;;;14.89;58.43;101834.41;5102750;28;19912;-45
2023/06/16 02:58:00;;;;;;;;;;;;;;;14.86;58.21;101826.53;5095341;28;19915;-46
2023/06/16 03:00:25;;;;;;;;;;;;;;;14.82;58.93;101832.50;5079263;28;19912;-46
2023/06/16 03:02:51;;;;;;;;;;;;;;;14.83;59.27;101833.38;5102883;28;20030;-44
2023/06/16 03:05:18;;;;;;;;;;;;;;;14.82;59.63;101827.31;5104593;28;20452;-48
2023/06/16 03:07:44;;;;;;;;;;;;;;;14.83;59.20;101833.38;5096355;28;19919;-47
2023/06/16 03:10:10;;;;;;;;;;;;;;;14.81;58.97;101835.06;5100166;28;19912;-45
2023/06/16 03:12:35;;;;;;;;;;;;;;;14.81;59.78;101841.13;5101824;28;19907;-48
2023/06/16 03:15:01;;;;;;;;;;;;;;;14.80;59.97;101838.47;5104627;28;20451;-46
2023/06/16 03:17:26;;;;;;;;;;;;;;;14.78;59.87;101838.44;5101276;28;20336;-44
2023/06/16 03:19:51;;;;;;;;;;;;;;;14.75;59.82;101836.66;5096846;28;19982;-46
2023/06/16 03:22:16;;;;;;;;;;;;;;;14.72;59.76;101835.66;5099324;28;19916;-43
2023/06/16 03:24:45;;;;;;;;;;;;;;;14.67;60.17;101838.13;5101865;28;20074;-45
2023/06/16 03:27:11;;;;;;;;;;;;;;;14.65;59.79;101844.13;5097307;28;19926;-45
2023/06/16 03:29:38;;;;;;;;;;;;;;;14.62;60.64;101839.75;5068581;28;19920;-47
2023/06/16 03:32:04;;;;;;;;;;;;;;;14.64;60.68;101844.97;5096996;28;19970;-45
2023/06/16 03:34:30;;;;;;;;;;;;;;;14.64;59.44;101839.78;5099021;28;19916;-46
2023/06/16 03:36:58;;;;;;;;;;;;;;;14.61;60.75;101837.09;5093676;28;19916;-59
2023/06/16 03:39:24;;;;;;;;;;;;;;;14.59;61.64;101838.78;5092837;28;19916;-59
2023/06/16 03:41:49;;;;;;;;;;;;;;;14.58;61.45;101850.84;5101059;28;19993;-59
2023/06/16 03:44:15;;;;;;;;;;;;;;;14.56;61.90;101842.16;5096443;28;19998;-59
2023/06/16 03:46:40;;;;;;;;;;;;;;;14.55;62.17;101847.28;5091698;28;19920;-59
2023/06/16 03:49:07;;;;;;;;;;;;;;;14.53;62.75;101842.06;5100334;28;20292;-58
2023/06/16 03:51:33;;;;;;;;;;;;;;;14.53;63.16;101846.38;5098115;28;19920;-45
2023/06/16 03:53:58;;;;;;;;;;;;;;;14.49;63.12;101843.69;5099318;28;19937;-47
2023/06/16 03:56:24;;;;;;;;;;;;;;;14.50;63.49;101852.34;5094098;28;19916;-44
2023/06/16 03:58:49;;;;;;;;;;;;;;;14.49;64.13;101850.56;5096062;28;19922;-45
2023/06/16 04:01:20;;;;;;;;;;;;;;;14.47;63.37;101845.38;5100008;28;20333;-45
2023/06/16 04:03:46;;;;;;;;;;;;;;;14.46;63.01;101851.38;5092322;28;19912;-44
2023/06/16 04:06:11;;;;;;;;;;;;;;;14.47;63.24;101855.72;5097411;28;19922;-46
2023/06/16 04:08:37;;;;;;;;;;;;;;;14.50;63.48;101847.19;5097115;28;20002;-45
2023/06/16 04:11:02;;;;;;;;;;;;;;;14.52;63.86;101847.22;5104612;28;19920;-44
2023/06/16 04:13:27;;;;;;;;;;;;;;;14.57;63.20;101856.00;5108665;28;20381;-45
2023/06/16 04:15:53;;;;;;;;;;;;;;;14.63;63.38;101853.56;5106192;28;19931;-45
2023/06/16 04:18:18;;;;;;;;;;;;;;;14.68;63.90;101854.53;5103860;28;19916;-44
2023/06/16 04:20:43;;;;;;;;;;;;;;;14.86;64.85;101852.44;5097769;28;19934;-46
2023/06/16 04:23:09;;;;;;;;;;;;;;;15.41;63.84;101859.03;5099796;28;19911;-59
2023/06/16 04:25:38;;;;;;;;;;;;;;;16.15;61.30;101861.59;5108576;28;19915;-58
2023/06/16 04:28:04;;;;;;;;;;;;;;;16.85;58.00;101857.78;5101882;28;19916;-58
2023/06/16 04:30:33;;;;;;;;;;;;;;;17.51;56.76;101858.91;5097531;28;19944;-59
2023/06/16 04:32:59;;;;;;;;;;;;;;;18.15;56.03;101867.66;5099059;28;19970;-44
2023/06/16 04:35:27;;;;;;;;;;;;;;;18.80;54.11;101856.25;5094199;28;19963;-45
2023/06/16 04:37:53;;;;;;;;;;;;;;;19.27;52.31;101856.69;5096047;28;19969;-45
2023/06/16 04:40:18;;;;;;;;;;;;;;;19.65;51.50;101856.13;5092769;28;20014;-44
2023/06/16 04:42:44;;;;;;;;;;;;;;;20.02;50.72;101857.22;5093286;28;19916;-46
2023/06/16 04:45:09;;;;;;;;;;;;;;;20.39;50.05;101861.75;5091200;28;19965;-44
2023/06/16 04:47:35;;;;;;;;;;;;;;;20.79;48.69;101858.38;5091490;28;19960;-45
2023/06/16 04:50:01;;;;;;;;;;;;;;;21.08;48.67;101861.03;5103449;28;19928;-44
2023/06/16 04:52:26;;;;;;;;;;;;;;;21.27;48.20;101858.41;5096922;28;19927;-44
2023/06/16 04:54:51;;;;;;;;;;;;;;;21.44;48.01;101864.53;5100602;28;19920;-48
2023/06/16 04:57:16;;;;;;;;;;;;;;;21.77;47.06;101863.59;5073203;28;19916;-45
2023/06/16 04:59:41;;;;;;;;;;;;;;;22.05;47.42;101866.16;5094081;28;20015;-46
2023/06/16 05:02:07;;;;;;;;;;;;;;;22.32;46.42;101859.94;5106460;28;20425;-45
2023/06/16 05:04:32;;;;;;;;;;;;;;;22.52;45.43;101860.75;5109111;28;19915;-45
2023/06/16 05:06:58;;;;;;;;;;;;;;;22.74;45.71;101858.84;5100682;28;19960;-48
2023/06/16 05:09:24;;;;;;;;;;;;;;;23.00;44.92;101859.56;5105601;28;19912;-59
2023/06/16 05:11:49;;;;;;;;;;;;;;;23.23;45.25;101848.00;5084251;28;19923;-46
2023/06/16 05:14:14;;;;;;;;;;;;;;;23.39;44.61;101859.25;5106806;28;20365;-44
2023/06/16 05:16:40;;;;;;;;;;;;;;;23.40;44.17;101861.84;5093892;28;19917;-45
2023/06/16 05:19:05;;;;;;;;;;;;;;;23.50;43.49;101860.03;5100051;28;20293;-47
2023/06/16 05:21:31;;;;;;;;;;;;;;;23.63;43.88;101866.06;5097601;28;20327;-60
2023/06/16 05:23:57;;;;;;;;;;;;;;;23.73;43.61;101872.97;5098841;28;20267;-58
2023/06/16 05:26:23;;;;;;;;;;;;;;;23.74;43.17;101870.31;5096639;28;20378;-59
2023/06/16 05:28:49;;;;;;;;;;;;;;;23.30;42.90;101878.59;5094567;28;19916;-59
2023/06/16 05:31:15;;;;;;;;;;;;;;;22.96;44.80;101876.22;5093965;28;19920;-58
2023/06/16 05:33:40;;;;;;;;;;;;;;;22.92;43.76;101874.47;5096116;28;19992;-59
2023/06/16 05:36:05;;;;;;;;;;;;;;;23.01;44.43;101870.94;5105091;28;20333;-58
2023/06/16 05:38:31;;;;;;;;;;;;;;;23.11;43.61;101867.34;5109509;28;20003;-59
2023/06/16 05:40:57;;;;;;;;;;;;;;;23.11;42.59;101866.47;5109678;28;20365;-60
2023/06/16 05:43:22;;;;;;;;;;;;;;;23.04;44.35;101870.03;5106756;28;19920;-59
2023/06/16 05:45:47;;;;;;;;;;;;;;;23.04;43.42;101875.28;5111896;28;19912;-59
2023/06/16 05:48:13;;;;;;;;;;;;;;;23.13;43.61;101876.09;5096078;28;20311;-59
2023/06/16 05:50:38;;;;;;;;;;;;;;;23.16;43.23;101881.28;5109758;28;19966;-59
2023/06/16 05:53:04;;;;;;;;;;;;;;;23.24;44.60;101874.25;5109474;28;20015;-59
2023/06/16 05:55:29;;;;;;;;;;;;;;;23.22;43.37;101875.13;5104179;28;20286;-59
2023/06/16 05:57:55;;;;;;;;;;;;;;;23.17;42.72;101876.91;5104200;28;19916;-59
2023/06/16 06:00:20;;;;;;;;;;;;;;;23.08;44.47;101877.88;5107165;28;20077;-59
2023/06/16 06:02:45;;;;;;;;;;;;;;;23.13;44.19;101880.47;5104801;28;19924;-59
2023/06/16 06:05:11;;;;;;;;;;;;;;;23.35;44.29;101881.16;5101403;28;19920;-59
2023/06/16 06:07:36;;;;;;;;;;;;;;;23.47;44.05;101881.03;5087027;28;20409;-59
2023/06/16 06:10:01;;;;;;;;;;;;;;;23.65;43.69;101880.88;5105780;28;20011;-59
2023/06/16 06:12:26;;;;;;;;;;;;;;;23.74;43.88;101885.19;5091103;28;20282;-59
2023/06/16 06:14:52;;;;;;;;;;;;;;;23.76;43.10;101894.78;5098619;28;19981;-60
2023/06/16 06:17:17;;;;;;;;;;;;;;;23.75;43.46;101886.94;5105689;28;19966;-59
2023/06/16 06:19:43;;;;;;;;;;;;;;;23.74;42.84;101893.94;5081046;28;19969;-61
2023/06/16 06:22:08;;;;;;;;;;;;;;;23.90;42.87;101896.38;5110248;28;19930;-61
2023/06/16 06:24:33;;;;;;;;;;;;;;;24.03;42.87;101898.88;5114116;28;19980;-59
2023/06/16 06:26:59;;;;;;;;;;;;;;;24.11;42.85;101897.94;5106048;28;20371;-60
2023/06/16 06:29:24;;;;;;;;;;;;;;;24.06;43.09;101893.59;5092936;28;19917;-60
2023/06/16 06:31:49;;;;;;;;;;;;;;;24.22;42.00;101903.94;5079602;28;20402;-59
2023/06/16 06:34:15;;;;;;;;;;;;;;;24.35;41.41;101902.91;5098360;28;20535;-59
2023/06/16 06:36:40;;;;;;;;;;;;;;;24.41;41.25;101904.59;5101894;28;19919;-60
2023/06/16 06:39:05;;;;;;;;;;;;;;;24.32;41.47;101909.03;5096817;28;20546;-59
2023/06/16 06:41:31;;;;;;;;;;;;;;;24.43;41.17;101905.44;5100907;28;19920;-60
2023/06/16 06:43:56;;;;;;;;;;;;;;;24.50;42.39;101902.69;5099090;28;19916;-59
2023/06/16 06:46:21;;;;;;;;;;;;;;;24.61;40.46;101903.44;5096919;28;19924;-60
2023/06/16 06:48:46;;;;;;;;;;;;;;;24.72;40.70;101905.91;5099852;28;20433;-59
2023/06/16 06:51:13;;;;;;;;;;;;;;;24.82;40.10;101901.41;5099088;28;20318;-61
2023/06/16 06:53:38;;;;;;;;;;;;;;;24.87;40.40;101910.06;5098767;28;20002;-60
2023/06/16 06:56:04;;;;;;;;;;;;;;;24.90;39.77;101906.56;5098385;28;20400;-61
2023/06/16 06:58:29;;;;;;;;;;;;;;;24.74;40.70;101905.88;5099301;28;19930;-60
2023/06/16 07:00:54;;;;;;;;;;;;;;;24.51;39.46;101904.47;5076704;28;20340;-59
2023/06/16 07:03:20;;;;;;;;;;;;;;;24.49;40.45;101908.84;5083485;28;19927;-58
2023/06/16 07:05:45;;;;;;;;;;;;;;;24.57;39.69;101908.75;5077556;28;20350;-59
2023/06/16 07:08:10;;;;;;;;;;;;;;;24.72;38.20;101913.81;5083389;28;19951;-59
2023/06/16 07:10:36;;;;;;;;;;;;;;;24.96;39.91;101904.69;5086568;28;19959;-59
2023/06/16 07:13:01;;;;;;;;;;;;;;;25.22;39.01;101912.19;5085056;28;19921;-58
2023/06/16 07:15:27;;;;;;;;;;;;;;;25.28;36.19;101909.47;5089873;28;20401;-60
2023/06/16 07:17:52;;;;;;;;;;;;;;;25.17;37.17;101910.53;5087560;28;20521;-59
2023/06/16 07:20:17;;;;;;;;;;;;;;;25.23;36.04;101911.31;5079956;28;19983;-59
2023/06/16 07:22:45;;;;;;;;;;;;;;;25.17;37.73;101910.53;5082018;28;19924;-59
2023/06/16 07:25:10;;;;;;;;;;;;;;;25.11;37.45;101912.38;5085911;28;20363;-59
2023/06/16 07:27:35;;;;;;;;;;;;;;;25.05;36.61;101915.09;5089353;28;19942;-58
2023/06/16 07:30:02;;;;;;;;;;;;;;;25.03;36.45;101914.22;5083694;28;19928;-59
2023/06/16 07:32:28;;;;;;;;;;;;;;;25.04;35.99;101917.72;5070053;28;19916;-59
2023/06/16 07:34:53;;;;;;;;;;;;;;;25.12;36.83;101911.50;5086528;28;20301;-59
2023/06/16 07:37:18;;;;;;;;;;;;;;;25.26;36.43;101913.91;5061323;28;19922;-60
2023/06/16 07:39:44;;;;;;;;;;;;;;;25.29;35.85;101919.09;5084826;28;19921;-60
2023/06/16 07:42:09;;;;;;;;;;;;;;;25.35;34.81;101918.13;5081200;28;19995;-59
2023/06/16 07:44:34;;;;;;;;;;;;;;;25.44;35.35;101918.00;5076941;28;19983;-59
2023/06/16 07:46:59;;;;;;;;;;;;;;;25.51;36.02;101921.38;5083181;28;19923;-60
2023/06/16 07:49:25;;;;;;;;;;;;;;;25.53;35.86;101917.81;5089188;28;19916;-60
2023/06/16 07:51:51;;;;;;;;;;;;;;;25.58;36.01;101915.13;5079757;28;20003;-59
2023/06/16 07:54:16;;;;;;;;;;;;;;;25.66;35.35;101918.47;5090553;28;19920;-59
2023/06/16 07:56:42;;;;;;;;;;;;;;;25.73;35.33;101914.00;5085723;28;20061;-60
2023/06/16 07:59:07;;;;;;;;;;;;;;;25.83;34.89;101910.28;5090987;28;19924;-58
2023/06/16 08:01:33;;;;;;;;;;;;;;;25.75;35.09;101909.59;5103393;28;19927;-59
2023/06/16 08:03:58;;;;;;;;;;;;;;;25.85;35.10;101911.16;5103194;28;19934;-62
2023/06/16 08:06:23;;;;;;;;;;;;;;;26.01;33.80;101911.72;5080455;28;19963;-60
2023/06/16 08:08:49;;;;;;;;;;;;;;;26.07;34.28;101907.19;5102037;28;19924;-60
2023/06/16 08:11:14;;;;;;;;;;;;;;;25.92;35.05;101904.88;5100893;28;19916;-60
2023/06/16 08:13:40;;;;;;;;;;;;;;;26.07;34.00;101908.97;5097046;28;19924;-59
2023/06/16 08:16:05;;;;;;;;;;;;;;;26.12;33.27;101907.97;5099777;28;19924;-59
2023/06/16 08:18:31;;;;;;;;;;;;;;;26.08;33.26;101900.16;5096234;28;19916;-59
2023/06/16 08:20:56;;;;;;;;;;;;;;;26.13;33.63;101907.06;5100110;28;19989;-60
2023/06/16 08:23:21;;;;;;;;;;;;;;;26.35;32.93;101910.16;5095360;28;19911;-60
2023/06/16 08:25:47;;;;;;;;;;;;;;;26.39;33.03;101905.66;5098684;28;20341;-59
2023/06/16 08:28:13;;;;;;;;;;;;;;;26.64;32.60;101906.91;5091575;28;20016;-60
2023/06/16 08:30:38;;;;;;;;;;;;;;;26.91;32.16;101893.97;5107649;28;19994;-60
2023/06/16 08:33:05;;;;;;;;;;;;;;;26.93;32.49;101895.66;5101261;28;20015;-58
2023/06/16 08:35:30;;;;;;;;;;;;;;;26.82;32.09;101896.84;5089242;28;20014;-58
2023/06/16 08:37:56;;;;;;;;;;;;;;;26.82;31.95;101904.75;5098962;28;20357;-60
2023/06/16 08:40:21;;;;;;;;;;;;;;;26.91;30.56;101896.63;5096495;28;19962;-59
2023/06/16 08:42:47;;;;;;;;;;;;;;;26.86;31.26;101901.13;5101038;28;19912;-58
2023/06/16 08:45:12;;;;;;;;;;;;;;;26.85;31.39;101904.69;5075168;28;20314;-59
2023/06/16 08:47:38;;;;;;;;;;;;;;;26.78;31.65;101900.44;5093678;28;20004;-59
2023/06/16 08:50:04;;;;;;;;;;;;;;;26.84;31.38;101893.25;5097728;28;19920;-59
2023/06/16 08:52:33;;;;;;;;;;;;;;;26.88;30.85;101891.44;5096826;28;20014;-60
2023/06/16 08:55:01;;;;;;;;;;;;;;;27.08;30.58;101890.97;5091822;28;19916;-58
2023/06/16 08:57:27;;;;;;;;;;;;;;;27.26;31.43;101896.66;5100823;28;19920;-58
2023/06/16 08:59:54;;;;;;;;;;;;;;;27.37;30.47;101892.91;5099575;28;19926;-59
2023/06/16 09:02:20;;;;;;;;;;;;;;;27.35;30.00;101895.56;5098880;28;19919;-59
2023/06/16 09:04:45;;;;;;;;;;;;;;;27.30;29.11;101896.56;5096192;28;20358;-59
2023/06/16 09:07:15;;;;;;;;;;;;;;;27.36;29.94;101896.41;5100467;28;19946;-59
2023/06/16 09:09:40;;;;;;;;;;;;;;;27.26;28.78;101890.53;5100350;28;19917;-59
2023/06/16 09:12:07;;;;;;;;;;;;;;;27.18;29.79;101893.34;5081800;28;19920;-59
2023/06/16 09:14:33;;;;;;;;;;;;;;;27.13;28.47;101895.25;5098847;28;19917;-59
2023/06/16 09:17:01;;;;;;;;;;;;;;;27.03;29.59;101896.31;5092496;28;19916;-59
2023/06/16 09:19:26;;;;;;;;;;;;;;;27.02;29.11;101899.00;5096509;28;19920;-59
2023/06/16 09:21:56;;;;;;;;;;;;;;;26.82;27.65;101894.22;5080304;28;19923;-59
2023/06/16 09:24:28;;;;;;;;;;;;;;;26.66;29.18;101904.22;5093618;28;20343;-59
2023/06/16 09:26:59;;;;;;;;;;;;;;;26.55;29.09;101900.97;5093886;28;20023;-59
2023/06/16 09:29:25;;;;;;;;;;;;;;;26.43;28.64;101902.09;5094653;28;19927;-59
2023/06/16 09:31:50;;;;;;;;;;;;;;;26.37;27.97;101896.91;5099478;28;19920;-59
2023/06/16 09:34:16;;;;;;;;;;;;;;;26.49;29.18;101896.69;5101484;28;20374;-59
2023/06/16 09:36:41;;;;;;;;;;;;;;;26.61;29.19;101895.56;5094753;28;19920;-60
2023/06/16 09:39:07;;;;;;;;;;;;;;;26.42;28.81;101892.44;5100361;28;19958;-59
2023/06/16 09:41:36;;;;;;;;;;;;;;;26.45;29.64;101892.38;5102504;28;19919;-63
2023/06/16 09:44:02;;;;;;;;;;;;;;;26.64;28.81;101888.44;5100650;28;19981;-59
2023/06/16 09:46:28;;;;;;;;;;;;;;;26.65;29.25;101892.81;5110474;28;19916;-59
2023/06/16 09:48:53;;;;;;;;;;;;;;;26.57;28.70;101889.47;5094615;28;19969;-59
2023/06/16 09:51:23;;;;;;;;;;;;;;;26.60;28.65;101894.69;5094205;28;20010;-59
2023/06/16 09:53:48;;;;;;;;;;;;;;;26.62;28.75;101890.22;5075390;28;19927;-60
2023/06/16 09:56:15;;;;;;;;;;;;;;;26.37;29.25;101889.00;5102090;28;19926;-59
2023/06/16 09:58:41;;;;;;;;;;;;;;;26.06;30.06;101881.75;5100178;28;20309;-59
2023/06/16 10:01:07;;;;;;;;;;;;;;;26.22;28.71;101884.94;5098124;28;19916;-59
2023/06/16 10:03:37;;;;;;;;;;;;;;;26.49;29.25;101883.50;5101726;28;20010;-59
2023/06/16 10:06:05;;;;;;;;;;;;;;;26.69;28.67;101875.13;5096068;28;20011;-60
2023/06/16 10:08:31;;;;;;;;;;;;;;;26.78;27.95;101877.56;5099256;28;20462;-59
2023/06/16 10:10:56;;;;;;;;;;;;;;;26.90;27.83;101876.41;5061030;28;19920;-59
2023/06/16 10:13:22;;;;;;;;;;;;;;;27.01;28.04;101871.75;5094407;28;20325;-59
2023/06/16 10:15:49;;;;;;;;;;;;;;;27.09;27.04;101869.81;5058572;28;19923;-60
2023/06/16 10:18:16;;;;;;;;;;;;;;;26.95;27.92;101871.91;5098341;28;19958;-43
2023/06/16 10:20:42;;;;;;;;;;;;;;;26.85;27.67;101865.97;5104263;28;20333;-47
2023/06/16 10:23:07;;;;;;;;;;;;;;;26.93;28.07;101861.34;5105930;28;20366;-59
2023/06/16 10:25:33;;;;;;;;;;;;;;;27.04;27.47;101861.09;5100528;28;20098;-60
2023/06/16 10:28:01;;;;;;;;;;;;;;;26.97;27.66;101868.31;5103943;28;19916;-58
2023/06/16 10:30:28;;;;;;;;;;;;;;;26.85;27.37;101863.31;5100545;28;19927;-58
2023/06/16 10:32:56;;;;;;;;;;;;;;;26.97;27.32;101864.81;5102410;28;19920;-58
2023/06/16 10:35:22;;;;;;;;;;;;;;;27.15;26.77;101867.03;5104661;28;19912;-59
2023/06/16 10:37:54;;;;;;;;;;;;;;;27.22;26.72;101852.75;5102483;28;19983;-58
2023/06/16 10:40:21;;;;;;;;;;;;;;;27.13;27.76;101860.06;5095560;28;19963;-58
2023/06/16 10:42:47;;;;;;;;;;;;;;;27.09;27.53;101847.81;5100954;28;19916;-58
2023/06/16 10:45:26;;;;;;;;;;;;;;;27.20;28.06;101854.56;5082317;28;20010;-58
2023/06/16 10:47:56;;;;;;;;;;;;;;;27.47;26.34;101852.97;5096246;28;19939;-58
2023/06/16 10:50:29;;;;;;;;;;;;;;;27.38;27.82;101844.44;5099749;28;20053;-60
2023/06/16 10:52:55;;;;;;;;;;;;;;;27.41;26.29;101847.84;5096735;28;19966;-58
2023/06/16 10:55:27;;;;;;;;;;;;;;;27.67;25.59;101846.31;5101933;28;19943;-57
2023/06/16 10:58:11;;;;;;;;;;;;;;;27.84;26.02;101846.69;5085236;28;19948;-58
2023/06/16 11:00:40;;;;;;;;;;;;;;;27.87;26.08;101843.13;5084756;28;19920;-57
2023/06/16 11:03:06;;;;;;;;;;;;;;;27.94;26.18;101837.63;5101463;28;20294;-58
2023/06/16 11:05:40;;;;;;;;;;;;;;;28.10;26.06;101838.03;5096882;28;19916;-58
2023/06/16 11:08:09;;;;;;;;;;;;;;;28.12;25.98;101841.50;5099807;28;19951;-57
2023/06/16 11:10:46;;;;;;;;;;;;;;;28.00;26.35;101836.56;5097318;28;19919;-58
2023/06/16 11:13:13;;;;;;;;;;;;;;;28.03;27.16;101834.72;5105993;28;19927;-58
2023/06/16 11:15:39;;;;;;;;;;;;;;;28.14;27.00;101844.09;5104988;28;20215;-57
2023/06/16 11:18:05;;;;;;;;;;;;;;;28.02;25.46;101829.44;5100187;28;19927;-58
2023/06/16 11:20:31;;;;;;;;;;;;;;;27.94;25.85;101828.81;5094501;28;19961;-57
2023/06/16 11:22:56;;;;;;;;;;;;;;;27.92;27.25;101825.38;5074234;28;19920;-57
2023/06/16 11:25:21;;;;;;;;;;;;;;;28.10;26.36;101830.09;5095561;28;20003;-56
2023/06/16 11:27:46;;;;;;;;;;;;;;;28.32;25.90;101820.63;5093922;28;19916;-56
2023/06/16 11:30:12;;;;;;;;;;;;;;;28.59;25.79;101823.34;5092004;28;19931;-56
2023/06/16 11:32:37;;;;;;;;;;;;;;;28.67;26.26;101818.66;5094410;28;20308;-56
2023/06/16 11:35:03;;;;;;;;;;;;;;;28.79;24.93;101826.19;5092518;28;20383;-56
2023/06/16 11:37:48;;;;;;;;;;;;;;;28.59;26.05;101818.91;5108533;28;19911;-56
2023/06/16 11:40:16;;;;;;;;;;;;;;;28.46;25.67;101820.22;5103468;28;19919;-57
2023/06/16 11:42:41;;;;;;;;;;;;;;;28.27;25.69;101826.94;5101426;28;20362;-55
2023/06/16 11:45:07;;;;;;;;;;;;;;;28.22;25.96;101824.44;5105921;28;19931;-56
2023/06/16 11:47:32;;;;;;;;;;;;;;;28.20;26.04;101826.25;5103378;28;19962;-55
2023/06/16 11:49:57;;;;;;;;;;;;;;;28.12;26.37;101819.47;5083068;28;20379;-56
2023/06/16 11:52:23;;;;;;;;;;;;;;;27.87;27.53;101816.69;5095543;28;19978;-55
2023/06/16 11:54:50;;;;;;;;;;;;;;;27.85;27.16;101811.47;5098977;28;20141;-56
2023/06/16 11:57:16;;;;;;;;;;;;;;;27.99;26.95;101825.13;5096531;28;20355;-57
2023/06/16 11:59:41;;;;;;;;;;;;;;;27.88;26.03;101811.34;5099200;28;19975;-57
2023/06/16 12:02:08;;;;;;;;;;;;;;;27.84;26.47;101815.00;5088863;28;20316;-56
2023/06/16 12:04:33;;;;;;;;;;;;;;;27.87;25.39;101814.06;5103514;28;19951;-55
2023/06/16 12:06:58;;;;;;;;;;;;;;;28.01;26.22;101807.44;5105267;27;19916;-57
2023/06/16 12:09:35;;;;;;;;;;;;;;;28.01;25.50;101806.56;5113066;27;19920;-56
2023/06/16 12:12:01;;;;;;;;;;;;;;;27.91;25.26;101805.09;5101354;28;19943;-50
2023/06/16 12:14:27;;;;;;;;;;;;;;;27.90;26.30;101808.66;5101596;28;19965;-50
2023/06/16 12:16:52;;;;;;;;;;;;;;;28.01;25.45;101802.16;5110227;28;19919;-47
2023/06/16 12:19:21;;;;;;;;;;;;;;;28.18;25.91;101796.34;5113680;28;19922;-50
2023/06/16 12:21:50;;;;;;;;;;;;;;;28.34;24.86;101801.22;5100801;28;19920;-48
2023/06/16 12:24:18;;;;;;;;;;;;;;;28.31;25.30;101800.38;5106342;28;19920;-49
2023/06/16 12:26:43;;;;;;;;;;;;;;;28.07;25.94;101798.47;5109729;28;19912;-47
2023/06/16 12:29:12;;;;;;;;;;;;;;;27.98;25.18;101796.97;5109156;28;20316;-49
2023/06/16 12:31:50;;;;;;;;;;;;;;;27.93;25.54;101795.38;5109336;28;20357;-47